createdAt,value
2022-09-01T00:01:50.197Z,13.40
2022-09-01T00:04:21.136Z,12.68
2022-09-01T00:06:48.952Z,12.70
2022-09-01T00:09:18.749Z,15.82
2022-09-01T00:11:50.513Z,14.63
2022-09-01T00:14:30.405Z,14.55
2022-09-01T00:17:00.105Z,14.38
2022-09-01T00:19:27.359Z,15.15
2022-09-01T00:21:55.095Z,15.93
2022-09-01T00:24:22.347Z,16.85
2022-09-01T00:26:49.339Z,18.50
2022-09-01T00:29:16.364Z,16.30
2022-09-01T00:31:43.843Z,19.33
2022-09-01T00:34:11.290Z,19.25
2022-09-01T00:36:38.120Z,20.95
2022-09-01T00:39:06.874Z,19.70
2022-09-01T00:41:38.235Z,20.90
2022-09-01T00:44:13.480Z,24.48
2022-09-01T00:46:55.458Z,22.35
2022-09-01T00:49:35.714Z,23.73
2022-09-01T00:52:13.706Z,27.27
2022-09-01T00:54:44.860Z,28.42
2022-09-01T00:57:13.187Z,25.83
2022-09-01T00:59:50.972Z,25.77
2022-09-01T01:02:17.646Z,23.05
2022-09-01T01:04:44.400Z,23.30
2022-09-01T01:07:12.618Z,18.85
2022-09-01T01:09:43.254Z,22.08
2022-09-01T01:12:18.663Z,20.65
2022-09-01T01:14:50.468Z,18.80
2022-09-01T01:17:19.737Z,20.08
2022-09-01T01:20:08.851Z,21.02
2022-09-01T01:22:58.757Z,19.08
2022-09-01T01:25:26.481Z,18.10
2022-09-01T01:28:14.242Z,18.55
2022-09-01T01:30:52.372Z,18.70
2022-09-01T01:33:22.670Z,16.60
2022-09-01T01:35:51.768Z,19.08
2022-09-01T01:38:21.572Z,16.38
2022-09-01T01:40:49.498Z,16.67
2022-09-01T01:43:20.012Z,16.70
2022-09-01T01:46:02.478Z,16.83
2022-09-01T01:48:30.223Z,16.40
2022-09-01T01:51:00.804Z,18.27
2022-09-01T01:53:28.948Z,17.38
2022-09-01T01:55:56.063Z,18.88
2022-09-01T01:58:24.527Z,16.90
2022-09-01T02:00:54.251Z,18.13
2022-09-01T02:03:25.054Z,16.30
2022-09-01T02:05:53.502Z,15.60
2022-09-01T02:08:22.857Z,14.23
2022-09-01T02:10:51.701Z,13.52
2022-09-01T02:13:20.958Z,14.45
2022-09-01T02:15:53.822Z,14.35
2022-09-01T02:18:36.027Z,15.00
2022-09-01T02:21:10.587Z,16.65
2022-09-01T02:23:41.060Z,17.42
2022-09-01T02:26:18.522Z,17.02
2022-09-01T02:28:54.221Z,18.63
2022-09-01T02:31:23.023Z,16.92
2022-09-01T02:33:49.794Z,20.95
2022-09-01T02:36:19.289Z,19.13
2022-09-01T02:38:53.276Z,18.17
2022-09-01T02:41:23.722Z,18.70
2022-09-01T02:43:50.992Z,19.05
2022-09-01T02:46:20.304Z,19.30
2022-09-01T02:48:51.362Z,19.55
2022-09-01T02:51:20.774Z,18.90
2022-09-01T02:53:53.029Z,19.85
2022-09-01T02:56:25.015Z,20.65
2022-09-01T02:58:52.998Z,19.27
2022-09-01T03:01:32.017Z,21.27
2022-09-01T03:04:01.800Z,21.20
2022-09-01T03:06:31.419Z,18.30
2022-09-01T03:09:01.878Z,20.73
2022-09-01T03:11:31.559Z,18.80
2022-09-01T03:13:58.513Z,17.42
2022-09-01T03:16:25.182Z,22.52
2022-09-01T03:18:52.568Z,20.77
2022-09-01T03:21:20.779Z,20.40
2022-09-01T03:23:48.444Z,20.88
2022-09-01T03:26:18.650Z,18.95
2022-09-01T03:28:46.286Z,19.30
2022-09-01T03:31:13.137Z,20.75
2022-09-01T03:33:40.827Z,23.20
2022-09-01T03:36:14.771Z,24.63
2022-09-01T03:38:43.939Z,25.98
2022-09-01T03:41:13.336Z,23.35
2022-09-01T03:43:47.038Z,24.60
2022-09-01T03:46:24.370Z,27.15
2022-09-01T03:48:58.492Z,26.95
2022-09-01T03:51:26.009Z,27.60
2022-09-01T03:53:55.010Z,26.75
2022-09-01T03:56:26.281Z,27.13
2022-09-01T03:58:56.215Z,26.60
2022-09-01T04:01:25.033Z,32.75
2022-09-01T04:03:52.991Z,30.10
2022-09-01T04:06:20.619Z,32.90
2022-09-01T04:08:47.582Z,39.53
2022-09-01T04:11:18.612Z,32.72
2022-09-01T04:13:46.330Z,33.85
2022-09-01T04:16:57.494Z,36.97
2022-09-01T04:19:26.823Z,39.92
2022-09-01T04:21:56.997Z,48.28
2022-09-01T04:24:28.375Z,55.97
2022-09-01T04:27:01.748Z,58.90
2022-09-01T04:29:29.790Z,60.78
2022-09-01T04:32:03.619Z,64.00
2022-09-01T04:34:37.274Z,80.38
2022-09-01T04:37:13.217Z,83.03
2022-09-01T04:39:40.304Z,97.80
2022-09-01T04:42:09.222Z,105.45
2022-09-01T04:44:36.667Z,106.85
2022-09-01T04:47:03.592Z,126.93
2022-09-01T04:49:33.758Z,144.02
2022-09-01T04:52:00.721Z,138.00
2022-09-01T04:54:27.368Z,148.63
2022-09-01T04:56:55.023Z,160.05
2022-09-01T04:59:24.178Z,161.90
2022-09-01T05:01:51.112Z,167.85
2022-09-01T05:04:24.472Z,171.10
2022-09-01T05:06:59.801Z,154.57
2022-09-01T05:09:29.068Z,173.10
2022-09-01T05:11:57.680Z,183.05
2022-09-01T05:14:25.636Z,208.13
2022-09-01T05:16:58.808Z,215.65
2022-09-01T05:19:28.938Z,221.68
2022-09-01T05:21:57.895Z,227.20
2022-09-01T05:24:30.194Z,214.80
2022-09-01T05:26:57.739Z,200.30
2022-09-01T05:29:25.588Z,215.23
2022-09-01T05:31:53.179Z,233.93
2022-09-01T05:34:26.733Z,260.35
2022-09-01T05:36:56.056Z,269.67
2022-09-01T05:39:22.887Z,270.15
2022-09-01T05:41:49.883Z,287.52
2022-09-01T05:44:17.017Z,286.33
2022-09-01T05:46:44.678Z,266.05
2022-09-01T05:49:16.894Z,267.38
2022-09-01T05:51:50.886Z,279.50
2022-09-01T05:54:27.383Z,257.58
2022-09-01T05:56:57.765Z,250.57
2022-09-01T05:59:31.550Z,253.77
2022-09-01T06:01:58.838Z,259.10
2022-09-01T06:04:26.861Z,242.70
2022-09-01T06:07:05.776Z,252.93
2022-09-01T06:09:38.175Z,226.63
2022-09-01T06:12:06.744Z,231.98
2022-09-01T06:14:34.134Z,248.40
2022-09-01T06:17:00.999Z,225.35
2022-09-01T06:19:28.471Z,229.25
2022-09-01T06:21:56.874Z,224.20
2022-09-01T06:24:23.592Z,180.88
2022-09-01T06:26:50.368Z,151.13
2022-09-01T06:29:17.059Z,156.55
2022-09-01T06:31:51.745Z,187.30
2022-09-01T06:34:19.595Z,193.95
2022-09-01T06:36:49.583Z,181.85
2022-09-01T06:39:26.601Z,164.43
2022-09-01T06:41:54.776Z,126.70
2022-09-01T06:44:24.959Z,115.60
2022-09-01T06:46:52.625Z,120.45
2022-09-01T06:49:21.496Z,138.40
2022-09-01T06:51:49.688Z,138.73
2022-09-01T06:54:19.927Z,100.68
2022-09-01T06:56:51.363Z,98.28
2022-09-01T06:59:19.924Z,90.65
2022-09-01T07:01:49.028Z,78.65
2022-09-01T07:04:21.480Z,57.05
2022-09-01T07:07:00.097Z,32.30
2022-09-01T07:09:47.098Z,31.38
2022-09-01T07:12:27.017Z,27.90
2022-09-01T07:17:43.159Z,16.80
2022-09-01T07:20:27.261Z,14.23
2022-09-01T07:23:04.515Z,13.43
2022-09-01T07:25:48.423Z,13.43
2022-09-01T07:28:25.478Z,13.88
2022-09-01T07:30:55.260Z,14.95
2022-09-01T07:33:44.171Z,13.25
2022-09-01T07:36:27.177Z,11.48
2022-09-01T07:44:28.821Z,8.43
2022-09-01T07:52:31.558Z,5.97
2022-09-01T07:54:58.200Z,5.65
2022-09-01T07:57:24.945Z,4.25
2022-09-01T07:59:55.637Z,4.32
2022-09-01T08:02:22.414Z,4.72
2022-09-01T08:04:49.124Z,4.60
2022-09-01T08:07:16.366Z,3.70
2022-09-01T08:09:44.114Z,2.08
2022-09-01T08:12:11.489Z,2.30
2022-09-01T08:14:38.208Z,3.25
2022-09-01T08:19:53.597Z,2.13
2022-09-01T08:22:25.226Z,2.38
2022-09-01T08:24:53.433Z,2.78
2022-09-01T08:27:20.787Z,2.22
2022-09-01T08:29:48.833Z,1.33
2022-09-01T08:32:15.504Z,2.50
2022-09-01T08:34:43.517Z,2.55
2022-09-01T08:37:10.075Z,2.88
2022-09-01T08:39:36.683Z,2.13
2022-09-01T08:42:41.696Z,1.98
2022-09-01T08:45:11.061Z,2.60
2022-09-01T08:47:58.366Z,2.13
2022-09-01T08:50:25.535Z,1.40
2022-09-01T08:53:10.749Z,1.33
2022-09-01T08:55:43.910Z,1.35
2022-09-01T08:58:15.202Z,0.88
2022-09-01T09:00:50.516Z,0.93
2022-09-01T09:03:40.578Z,1.27
2022-09-01T09:06:16.399Z,0.80
2022-09-01T09:08:58.019Z,0.80
2022-09-01T09:11:27.396Z,1.10
2022-09-01T09:13:59.885Z,1.17
2022-09-01T09:16:32.686Z,0.70
2022-09-01T09:19:06.495Z,1.30
2022-09-01T09:21:37.421Z,0.85
2022-09-01T09:24:10.551Z,0.52
2022-09-01T09:26:44.791Z,1.33
2022-09-01T09:29:11.649Z,0.70
2022-09-01T09:31:45.898Z,1.20
2022-09-01T09:34:27.808Z,0.88
2022-09-01T09:36:57.025Z,0.90
2022-09-01T09:39:23.906Z,1.08
2022-09-01T09:42:07.822Z,0.98
2022-09-01T09:44:41.431Z,0.93
2022-09-01T09:47:27.258Z,0.70
2022-09-01T09:50:38.164Z,0.88
2022-09-01T09:53:27.251Z,1.13
2022-09-01T09:56:19.804Z,1.27
2022-09-01T09:58:48.756Z,0.85
2022-09-01T10:01:30.706Z,0.68
2022-09-01T10:04:00.510Z,1.27
2022-09-01T10:06:36.195Z,0.63
2022-09-01T10:11:35.619Z,0.88
2022-09-01T10:14:06.248Z,0.73
2022-09-01T10:16:37.668Z,0.65
2022-09-01T10:19:12.563Z,0.63
2022-09-01T10:21:42.691Z,0.57
2022-09-01T10:24:17.356Z,0.80
2022-09-01T10:26:52.974Z,0.63
2022-09-01T10:29:34.758Z,0.90
2022-09-01T10:32:30.758Z,0.82
2022-09-01T10:34:56.158Z,1.33
2022-09-01T10:37:27.635Z,0.75
2022-09-01T10:40:34.707Z,1.33
2022-09-01T10:43:25.224Z,0.75
2022-09-01T10:45:57.903Z,0.77
2022-09-01T10:48:46.230Z,1.20
2022-09-01T10:51:19.204Z,0.65
2022-09-01T10:53:52.598Z,0.70
2022-09-01T10:56:51.339Z,0.95
2022-09-01T10:59:40.104Z,1.33
2022-09-01T11:02:26.971Z,1.40
2022-09-01T11:04:54.505Z,1.00
2022-09-01T11:07:50.084Z,1.10
2022-09-01T11:10:35.794Z,0.52
2022-09-01T11:13:21.759Z,0.70
2022-09-01T11:15:48.951Z,0.77
2022-09-01T11:18:26.075Z,0.90
2022-09-01T11:20:55.426Z,1.00
2022-09-01T11:23:30.611Z,1.10
2022-09-01T11:26:32.406Z,0.70
2022-09-01T11:28:59.518Z,0.60
2022-09-01T11:31:31.143Z,0.98
2022-09-01T11:34:13.841Z,0.80
2022-09-01T11:36:47.416Z,0.80
2022-09-01T11:39:17.853Z,0.95
2022-09-01T11:41:51.747Z,1.00
2022-09-01T11:44:42.769Z,0.93
2022-09-01T11:47:19.181Z,0.55
2022-09-01T11:49:56.990Z,0.47
2022-09-01T11:52:27.973Z,0.70
2022-09-01T11:54:54.739Z,1.15
2022-09-01T11:57:22.955Z,0.80
2022-09-01T11:59:50.384Z,0.60
2022-09-01T12:02:19.049Z,0.98
2022-09-01T12:04:46.354Z,0.60
2022-09-01T12:07:43.089Z,0.82
2022-09-01T12:10:22.035Z,0.52
2022-09-01T12:12:48.592Z,0.45
2022-09-01T12:15:25.343Z,0.90
2022-09-01T12:17:53.691Z,0.50
2022-09-01T12:20:29.405Z,0.75
2022-09-01T12:22:58.387Z,0.68
2022-09-01T12:25:30.399Z,1.05
2022-09-01T12:28:00.147Z,0.75
2022-09-01T12:30:26.894Z,0.38
2022-09-01T12:33:22.809Z,0.40
2022-09-01T12:35:41.886Z,0.80
2022-09-01T12:38:20.735Z,0.43
2022-09-01T12:40:50.336Z,0.40
2022-09-01T12:43:29.239Z,1.02
2022-09-01T12:45:57.447Z,0.75
2022-09-01T12:48:38.069Z,0.88
2022-09-01T12:51:24.532Z,0.45
2022-09-01T12:53:58.550Z,0.70
2022-09-01T12:56:36.167Z,0.40
2022-09-01T12:59:14.143Z,0.73
2022-09-01T13:01:42.978Z,0.70
2022-09-01T13:04:22.381Z,0.70
2022-09-01T13:06:49.839Z,0.73
2022-09-01T13:09:16.446Z,0.70
2022-09-01T13:14:31.721Z,0.60
2022-09-01T13:16:58.340Z,0.60
2022-09-01T13:19:28.814Z,0.43
2022-09-01T13:21:57.347Z,0.30
2022-09-01T13:24:28.688Z,0.65
2022-09-01T13:29:43.822Z,0.47
2022-09-01T13:32:19.336Z,0.35
2022-09-01T13:34:47.334Z,0.47
2022-09-01T13:37:14.123Z,0.38
2022-09-01T13:39:40.671Z,0.30
2022-09-01T13:42:07.390Z,0.47
2022-09-01T13:44:35.425Z,0.68
2022-09-01T13:47:28.780Z,0.40
2022-09-01T13:52:35.766Z,0.50
2022-09-01T13:55:02.438Z,0.28
2022-09-01T13:57:31.526Z,0.35
2022-09-01T14:00:10.997Z,0.63
2022-09-01T14:02:43.062Z,0.45
2022-09-01T14:05:10.529Z,0.20
2022-09-01T14:07:37.524Z,0.10
2022-09-01T14:10:05.070Z,0.38
2022-09-01T14:12:32.587Z,0.40
2022-09-01T14:17:56.229Z,0.70
2022-09-01T14:20:25.796Z,0.30
2022-09-01T14:22:52.705Z,0.43
2022-09-01T14:25:20.629Z,0.30
2022-09-01T14:27:48.996Z,0.30
2022-09-01T14:30:30.461Z,0.45
2022-09-01T14:33:01.533Z,0.43
2022-09-01T14:35:30.738Z,0.25
2022-09-01T14:37:59.004Z,0.40
2022-09-01T14:40:26.070Z,0.40
2022-09-01T14:42:53.191Z,0.20
2022-09-01T14:45:25.513Z,0.45
2022-09-01T14:47:54.930Z,0.30
2022-09-01T14:50:23.684Z,0.22
2022-09-01T14:52:54.412Z,0.22
2022-09-01T14:55:25.721Z,0.40
2022-09-01T14:57:52.465Z,0.20
2022-09-01T15:00:19.883Z,0.20
2022-09-01T15:02:47.421Z,0.30
2022-09-01T15:05:14.566Z,0.55
2022-09-01T15:07:42.715Z,0.32
2022-09-01T15:10:15.792Z,0.20
2022-09-01T15:12:47.135Z,0.30
2022-09-01T15:15:13.862Z,0.28
2022-09-01T15:17:43.344Z,0.47
2022-09-01T15:20:31.429Z,0.43
2022-09-01T15:22:58.691Z,0.40
2022-09-01T15:25:25.601Z,0.20
2022-09-01T15:27:52.602Z,0.40
2022-09-01T15:30:20.251Z,0.40
2022-09-01T15:32:49.079Z,0.40
2022-09-01T15:35:16.203Z,0.52
2022-09-01T15:37:43.409Z,0.65
2022-09-01T15:40:10.492Z,0.57
2022-09-01T15:42:38.180Z,0.28
2022-09-01T15:45:08.329Z,0.60
2022-09-01T15:47:35.415Z,0.50
2022-09-01T15:50:06.955Z,0.55
2022-09-01T15:52:34.767Z,0.32
2022-09-01T15:55:03.257Z,0.65
2022-09-01T15:57:29.864Z,0.68
2022-09-01T15:59:57.402Z,0.30
2022-09-01T16:02:27.743Z,0.68
2022-09-01T16:04:56.759Z,0.52
2022-09-01T16:07:23.770Z,0.52
2022-09-01T16:09:57.867Z,0.45
2022-09-01T16:12:26.527Z,0.60
2022-09-01T16:14:55.189Z,0.65
2022-09-01T16:17:45.173Z,0.60
2022-09-01T16:20:21.833Z,0.43
2022-09-01T16:22:55.516Z,0.75
2022-09-01T16:25:30.035Z,0.68
2022-09-01T16:27:57.598Z,0.57
2022-09-01T16:30:29.119Z,0.93
2022-09-01T16:33:02.754Z,0.35
2022-09-01T16:35:44.797Z,1.27
2022-09-01T16:38:20.582Z,0.65
2022-09-01T16:40:57.904Z,1.00
2022-09-01T16:43:37.574Z,1.20
2022-09-01T16:46:19.471Z,1.25
2022-09-01T16:48:47.199Z,1.40
2022-09-01T16:51:19.126Z,1.85
2022-09-01T16:53:54.147Z,1.73
2022-09-01T16:56:35.574Z,1.15
2022-09-01T16:59:24.756Z,1.58
2022-09-01T17:02:00.038Z,2.40
2022-09-01T17:04:29.434Z,3.35
2022-09-01T17:07:09.110Z,4.07
2022-09-01T17:09:40.713Z,3.35
2022-09-01T17:12:27.580Z,3.78
2022-09-01T17:15:06.866Z,3.28
2022-09-01T17:17:47.789Z,2.45
2022-09-01T17:20:16.237Z,3.63
2022-09-01T17:22:57.060Z,4.05
2022-09-01T17:25:33.717Z,3.25
2022-09-01T17:28:04.393Z,4.57
2022-09-01T17:30:36.246Z,4.57
2022-09-01T17:33:34.546Z,4.30
2022-09-01T17:36:03.941Z,4.85
2022-09-01T17:39:03.291Z,8.00
2022-09-01T17:41:34.367Z,8.52
2022-09-01T17:44:12.854Z,8.27
2022-09-01T17:47:12.015Z,8.43
2022-09-01T17:49:53.321Z,9.18
2022-09-01T17:52:40.773Z,8.05
2022-09-01T17:55:38.186Z,7.20
2022-09-01T17:58:10.355Z,7.38
2022-09-01T18:00:52.852Z,8.10
2022-09-01T18:03:44.032Z,6.55
2022-09-01T18:06:15.700Z,7.35
2022-09-01T18:08:44.822Z,9.15
2022-09-01T18:11:50.474Z,8.45
2022-09-01T18:14:58.424Z,7.93
2022-09-01T18:17:29.068Z,6.93
2022-09-01T18:20:09.929Z,7.68
2022-09-01T18:22:47.336Z,8.13
2022-09-01T18:25:23.068Z,8.68
2022-09-01T18:27:50.058Z,8.85
2022-09-01T18:30:36.360Z,6.78
2022-09-01T18:33:37.139Z,8.20
2022-09-01T18:36:41.249Z,6.90
2022-09-01T18:39:29.466Z,8.00
2022-09-01T18:42:19.091Z,8.57
2022-09-01T18:45:24.801Z,7.63
2022-09-01T18:48:09.156Z,7.95
2022-09-01T18:51:03.454Z,8.45
2022-09-01T18:53:44.642Z,9.60
2022-09-01T18:56:25.090Z,7.97
2022-09-01T18:58:51.761Z,8.93
2022-09-01T19:01:40.882Z,9.15
2022-09-01T19:04:31.926Z,7.00
2022-09-01T19:07:01.711Z,8.80
2022-09-01T19:09:42.542Z,8.52
2022-09-01T19:12:41.211Z,9.77
2022-09-01T19:15:25.725Z,8.55
2022-09-01T19:18:12.817Z,9.98
2022-09-01T19:21:02.620Z,12.18
2022-09-01T19:23:36.066Z,10.13
2022-09-01T19:26:07.635Z,12.75
2022-09-01T19:28:40.196Z,11.70
2022-09-01T19:31:17.940Z,13.23
2022-09-01T19:33:51.070Z,11.52
2022-09-01T19:36:35.575Z,11.52
2022-09-01T19:39:02.524Z,12.80
2022-09-01T19:41:53.721Z,11.30
2022-09-01T19:44:54.898Z,12.05
2022-09-01T19:47:36.915Z,12.00
2022-09-01T19:50:06.445Z,10.10
2022-09-01T19:52:49.425Z,9.80
2022-09-01T19:55:36.650Z,11.65
2022-09-01T19:58:15.131Z,10.90
2022-09-01T20:00:53.519Z,12.23
2022-09-01T20:03:28.805Z,11.77
2022-09-01T20:06:05.046Z,13.55
2022-09-01T20:08:41.776Z,17.27
2022-09-01T20:11:18.879Z,15.60
2022-09-01T20:14:03.399Z,13.75
2022-09-01T20:16:41.708Z,14.95
2022-09-01T20:19:24.418Z,14.68
2022-09-01T20:21:51.073Z,13.68
2022-09-01T20:24:39.635Z,12.13
2022-09-01T20:27:33.987Z,14.85
2022-09-01T20:30:07.600Z,14.50
2022-09-01T20:32:59.807Z,13.98
2022-09-01T20:35:39.941Z,14.80
2022-09-01T20:38:36.741Z,15.68
2022-09-01T20:41:19.499Z,15.75
2022-09-01T20:43:51.725Z,16.15
2022-09-01T20:46:20.554Z,15.27
2022-09-01T20:48:48.023Z,14.75
2022-09-01T20:51:27.615Z,15.20
2022-09-01T20:54:23.181Z,16.20
2022-09-01T20:57:05.030Z,15.35
2022-09-01T21:00:07.947Z,13.75
2022-09-01T21:02:34.686Z,15.85
2022-09-01T21:05:01.303Z,14.35
2022-09-01T21:07:48.721Z,14.23
2022-09-01T21:10:45.207Z,14.02
2022-09-01T21:13:18.964Z,15.75
2022-09-01T21:15:59.268Z,13.55
2022-09-01T21:19:27.471Z,12.43
2022-09-01T21:24:35.472Z,12.27
2022-09-01T21:27:07.590Z,12.75
2022-09-01T21:30:00.288Z,11.30
2022-09-01T21:32:29.211Z,10.50
2022-09-01T21:34:56.635Z,11.15
2022-09-01T21:37:24.827Z,12.50
2022-09-01T21:39:53.902Z,10.55
2022-09-01T21:42:24.065Z,10.20
2022-09-01T21:44:52.102Z,12.70
2022-09-01T21:47:21.703Z,12.85
2022-09-01T21:49:48.350Z,13.05
2022-09-01T21:52:15.021Z,12.65
2022-09-01T21:54:41.683Z,14.55
2022-09-01T21:57:08.307Z,13.80
2022-09-01T21:59:34.978Z,15.30
2022-09-01T22:02:02.128Z,15.60
2022-09-01T22:04:28.718Z,17.00
2022-09-01T22:06:55.345Z,16.00
2022-09-01T22:09:21.985Z,13.57
2022-09-01T22:11:50.453Z,14.30
2022-09-01T22:14:18.514Z,14.15
2022-09-01T22:16:45.117Z,12.77
2022-09-01T22:19:12.169Z,13.40
2022-09-01T22:21:39.845Z,13.88
2022-09-01T22:24:06.721Z,12.20
2022-09-01T22:26:34.283Z,13.73
2022-09-01T22:29:05.625Z,12.45
2022-09-01T22:31:34.734Z,11.93
2022-09-01T22:34:01.297Z,12.32
2022-09-01T22:36:34.755Z,12.77
2022-09-01T22:39:01.857Z,12.10
2022-09-01T22:41:30.634Z,10.93
2022-09-01T22:44:00.181Z,10.57
2022-09-01T22:46:29.252Z,11.07
2022-09-01T22:48:57.361Z,10.82
2022-09-01T22:51:24.970Z,10.68
2022-09-01T22:53:54.293Z,11.15
2022-09-01T22:56:24.168Z,11.95
2022-09-01T22:58:54.313Z,12.63
2022-09-01T23:01:25.238Z,12.98
2022-09-01T23:03:52.376Z,10.90
2022-09-01T23:06:28.149Z,11.43
2022-09-01T23:08:57.223Z,11.80
2022-09-01T23:11:24.593Z,10.90
2022-09-01T23:13:51.689Z,11.50
2022-09-01T23:16:20.675Z,11.05
2022-09-01T23:18:49.029Z,13.18
2022-09-01T23:21:19.323Z,11.68
2022-09-01T23:23:46.685Z,11.70
2022-09-01T23:26:14.476Z,12.63
2022-09-01T23:28:42.886Z,10.57
2022-09-01T23:31:16.874Z,12.73
2022-09-01T23:33:44.037Z,12.55
2022-09-01T23:36:13.861Z,13.88
2022-09-01T23:38:41.277Z,11.27
2022-09-01T23:41:13.984Z,12.10
2022-09-01T23:43:40.654Z,12.68
2022-09-01T23:46:08.095Z,12.57
2022-09-01T23:48:34.767Z,14.23
2022-09-01T23:51:08.654Z,11.73
2022-09-01T23:53:36.520Z,12.85
2022-09-01T23:56:08.027Z,13.63
2022-09-01T23:58:34.751Z,14.02
